Main page
METAR-TAF:

METAR-TAF

Airports :

Svalbard Airport. Longyear

Longyearbyen, Norway

latitude: 78-15N, longitude: 015-28E, elevation: 2 m

Current weather observation

The report was made 24 minutes ago, at 16:20 UTC
Wind 6 kt from the North
Temperature 8°C
Humidity 71%
Pressure 1008 hPa
Visibility 10 km or more
Broken clouds at a height of 3500 ft

METAR: ENSB 231620Z 01006KT 9999 BKN035 08/03 Q1008 RMK WIND 1400FT 04004KT

Time: 18:44 (16:44 UTC)

Forecast

The report was made 5 hours and 44 minutes ago, at 11:00 UTC
Forecast valid from 23 at 12 UTC to 24 at 12 UTC
Wind 5 kt from the West
Visibility 10 km or more
Broken clouds at a height of 2500 ft

TAF: ENSB 231100Z 2312/2412 28005KT 9999 BKN025

Weather observations and forecasts of more than 4000 airports (METAR and TAF reports).

The available stations are represented by yellow and red dots on the map.

Hover mouse over dot to see the name of the station.

Then click to see weather observations and forecasts.

To change the map : click on the green buttons with a black cross to zoom in, on the green button with a dash to zoom out, or on the green arrows for adjacent maps.


METAR-TAF: